sensor_id;sensor_type;location;lat;lon;timestamp;P1;durP1;ratioP1;P2;durP2;ratioP2
75823;SDS011;64457;51.976;9.834;2022-12-18T00:01:22;24.85;;;13.45;;
75823;SDS011;64457;51.976;9.834;2022-12-18T00:03:51;28.35;;;14.45;;
75823;SDS011;64457;51.976;9.834;2022-12-18T00:06:20;25.15;;;13.43;;
75823;SDS011;64457;51.976;9.834;2022-12-18T00:08:48;24.88;;;13.55;;
75823;SDS011;64457;51.976;9.834;2022-12-18T00:11:17;24.75;;;12.52;;
75823;SDS011;64457;51.976;9.834;2022-12-18T00:13:47;21.48;;;11.93;;
75823;SDS011;64457;51.976;9.834;2022-12-18T00:16:16;23.52;;;12.80;;
75823;SDS011;64457;51.976;9.834;2022-12-18T00:18:47;26.15;;;14.00;;
75823;SDS011;64457;51.976;9.834;2022-12-18T00:21:16;25.40;;;14.15;;
75823;SDS011;64457;51.976;9.834;2022-12-18T00:23:44;25.77;;;14.63;;
75823;SDS011;64457;51.976;9.834;2022-12-18T00:26:14;29.98;;;14.68;;
75823;SDS011;64457;51.976;9.834;2022-12-18T00:28:45;31.67;;;14.88;;
75823;SDS011;64457;51.976;9.834;2022-12-18T00:31:12;26.60;;;14.57;;
75823;SDS011;64457;51.976;9.834;2022-12-18T00:33:42;24.77;;;14.23;;
75823;SDS011;64457;51.976;9.834;2022-12-18T00:36:13;24.30;;;12.73;;
75823;SDS011;64457;51.976;9.834;2022-12-18T00:38:42;27.88;;;15.05;;
75823;SDS011;64457;51.976;9.834;2022-12-18T00:41:11;25.40;;;13.73;;
75823;SDS011;64457;51.976;9.834;2022-12-18T00:44:01;26.30;;;12.57;;
75823;SDS011;64457;51.976;9.834;2022-12-18T00:46:29;26.63;;;14.48;;
75823;SDS011;64457;51.976;9.834;2022-12-18T00:48:57;28.13;;;14.93;;
75823;SDS011;64457;51.976;9.834;2022-12-18T00:51:26;26.98;;;16.80;;
75823;SDS011;64457;51.976;9.834;2022-12-18T00:53:53;25.55;;;13.90;;
75823;SDS011;64457;51.976;9.834;2022-12-18T00:56:20;27.77;;;15.20;;
75823;SDS011;64457;51.976;9.834;2022-12-18T00:58:48;29.40;;;14.98;;
75823;SDS011;64457;51.976;9.834;2022-12-18T01:01:16;28.73;;;14.23;;
75823;SDS011;64457;51.976;9.834;2022-12-18T01:03:44;28.55;;;15.27;;
75823;SDS011;64457;51.976;9.834;2022-12-18T01:06:13;25.58;;;14.32;;
75823;SDS011;64457;51.976;9.834;2022-12-18T01:08:43;30.67;;;15.43;;
75823;SDS011;64457;51.976;9.834;2022-12-18T01:11:11;28.58;;;14.43;;
75823;SDS011;64457;51.976;9.834;2022-12-18T01:13:41;26.20;;;14.45;;
75823;SDS011;64457;51.976;9.834;2022-12-18T01:16:10;23.73;;;13.75;;
75823;SDS011;64457;51.976;9.834;2022-12-18T01:18:39;30.90;;;15.60;;
75823;SDS011;64457;51.976;9.834;2022-12-18T01:21:07;30.02;;;15.13;;
75823;SDS011;64457;51.976;9.834;2022-12-18T01:23:35;27.88;;;15.90;;
75823;SDS011;64457;51.976;9.834;2022-12-18T01:26:08;26.27;;;13.63;;
75823;SDS011;64457;51.976;9.834;2022-12-18T01:28:37;28.17;;;15.00;;
75823;SDS011;64457;51.976;9.834;2022-12-18T01:31:09;25.98;;;13.52;;
75823;SDS011;64457;51.976;9.834;2022-12-18T01:33:43;29.67;;;14.15;;
75823;SDS011;64457;51.976;9.834;2022-12-18T01:36:18;24.92;;;14.85;;
75823;SDS011;64457;51.976;9.834;2022-12-18T01:38:48;22.42;;;12.98;;
75823;SDS011;64457;51.976;9.834;2022-12-18T01:41:21;21.27;;;12.13;;
75823;SDS011;64457;51.976;9.834;2022-12-18T01:43:52;21.75;;;12.05;;
75823;SDS011;64457;51.976;9.834;2022-12-18T01:46:22;24.13;;;13.23;;
75823;SDS011;64457;51.976;9.834;2022-12-18T01:48:52;21.90;;;11.43;;
75823;SDS011;64457;51.976;9.834;2022-12-18T01:51:23;21.98;;;11.02;;
75823;SDS011;64457;51.976;9.834;2022-12-18T01:53:52;18.50;;;10.90;;
75823;SDS011;64457;51.976;9.834;2022-12-18T01:56:21;21.27;;;11.20;;
75823;SDS011;64457;51.976;9.834;2022-12-18T01:58:59;26.05;;;12.85;;
75823;SDS011;64457;51.976;9.834;2022-12-18T02:01:30;25.70;;;14.20;;
75823;SDS011;64457;51.976;9.834;2022-12-18T02:04:13;22.25;;;11.20;;
75823;SDS011;64457;51.976;9.834;2022-12-18T02:06:48;31.55;;;13.20;;
75823;SDS011;64457;51.976;9.834;2022-12-18T02:09:22;24.88;;;13.45;;
75823;SDS011;64457;51.976;9.834;2022-12-18T02:11:56;21.65;;;12.85;;
75823;SDS011;64457;51.976;9.834;2022-12-18T02:14:31;22.67;;;13.07;;
75823;SDS011;64457;51.976;9.834;2022-12-18T02:17:07;28.35;;;13.77;;
75823;SDS011;64457;51.976;9.834;2022-12-18T02:19:44;25.15;;;13.80;;
75823;SDS011;64457;51.976;9.834;2022-12-18T02:22:26;22.77;;;12.70;;
75823;SDS011;64457;51.976;9.834;2022-12-18T02:25:06;19.80;;;11.82;;
75823;SDS011;64457;51.976;9.834;2022-12-18T02:27:54;23.55;;;13.88;;
75823;SDS011;64457;51.976;9.834;2022-12-18T02:30:25;21.25;;;12.35;;
75823;SDS011;64457;51.976;9.834;2022-12-18T02:32:56;25.23;;;13.50;;
75823;SDS011;64457;51.976;9.834;2022-12-18T02:35:27;25.08;;;13.07;;
75823;SDS011;64457;51.976;9.834;2022-12-18T02:37:57;20.88;;;11.68;;
75823;SDS011;64457;51.976;9.834;2022-12-18T02:40:25;24.77;;;13.40;;
75823;SDS011;64457;51.976;9.834;2022-12-18T02:42:56;19.67;;;12.10;;
75823;SDS011;64457;51.976;9.834;2022-12-18T02:45:32;22.00;;;12.00;;
75823;SDS011;64457;51.976;9.834;2022-12-18T02:48:00;19.17;;;10.13;;
75823;SDS011;64457;51.976;9.834;2022-12-18T02:50:30;20.17;;;12.15;;
75823;SDS011;64457;51.976;9.834;2022-12-18T02:53:05;22.10;;;11.15;;
75823;SDS011;64457;51.976;9.834;2022-12-18T02:55:45;20.33;;;10.85;;
75823;SDS011;64457;51.976;9.834;2022-12-18T02:58:30;21.67;;;10.73;;
75823;SDS011;64457;51.976;9.834;2022-12-18T03:01:08;18.95;;;11.23;;
75823;SDS011;64457;51.976;9.834;2022-12-18T03:03:43;22.10;;;10.30;;
75823;SDS011;64457;51.976;9.834;2022-12-18T03:06:17;23.98;;;12.75;;
75823;SDS011;64457;51.976;9.834;2022-12-18T03:08:51;21.75;;;11.93;;
75823;SDS011;64457;51.976;9.834;2022-12-18T03:11:25;23.05;;;12.10;;
75823;SDS011;64457;51.976;9.834;2022-12-18T03:14:14;21.58;;;11.77;;
75823;SDS011;64457;51.976;9.834;2022-12-18T03:16:43;23.67;;;11.95;;
75823;SDS011;64457;51.976;9.834;2022-12-18T03:19:14;22.60;;;12.20;;
75823;SDS011;64457;51.976;9.834;2022-12-18T03:21:45;23.85;;;12.20;;
75823;SDS011;64457;51.976;9.834;2022-12-18T03:24:17;20.42;;;11.75;;
75823;SDS011;64457;51.976;9.834;2022-12-18T03:26:47;21.77;;;12.43;;
75823;SDS011;64457;51.976;9.834;2022-12-18T03:29:21;18.90;;;11.23;;
75823;SDS011;64457;51.976;9.834;2022-12-18T03:31:55;23.75;;;11.57;;
75823;SDS011;64457;51.976;9.834;2022-12-18T03:34:29;17.15;;;10.02;;
75823;SDS011;64457;51.976;9.834;2022-12-18T03:37:01;16.95;;;9.68;;
75823;SDS011;64457;51.976;9.834;2022-12-18T03:39:29;23.23;;;11.05;;
75823;SDS011;64457;51.976;9.834;2022-12-18T03:41:58;16.33;;;8.52;;
75823;SDS011;64457;51.976;9.834;2022-12-18T03:44:34;16.02;;;9.23;;
75823;SDS011;64457;51.976;9.834;2022-12-18T03:47:09;17.02;;;10.68;;
75823;SDS011;64457;51.976;9.834;2022-12-18T03:49:45;23.63;;;11.00;;
75823;SDS011;64457;51.976;9.834;2022-12-18T03:52:19;19.95;;;10.40;;
75823;SDS011;64457;51.976;9.834;2022-12-18T03:54:52;20.88;;;11.30;;
75823;SDS011;64457;51.976;9.834;2022-12-18T03:57:23;20.58;;;11.25;;
75823;SDS011;64457;51.976;9.834;2022-12-18T03:59:56;20.00;;;11.70;;
75823;SDS011;64457;51.976;9.834;2022-12-18T04:02:27;17.92;;;9.90;;
75823;SDS011;64457;51.976;9.834;2022-12-18T04:04:57;21.08;;;10.73;;
75823;SDS011;64457;51.976;9.834;2022-12-18T04:07:28;19.33;;;11.00;;
75823;SDS011;64457;51.976;9.834;2022-12-18T04:09:56;17.90;;;10.45;;
75823;SDS011;64457;51.976;9.834;2022-12-18T04:12:28;17.48;;;10.25;;
75823;SDS011;64457;51.976;9.834;2022-12-18T04:14:58;18.95;;;10.00;;
75823;SDS011;64457;51.976;9.834;2022-12-18T04:17:25;22.88;;;10.63;;
75823;SDS011;64457;51.976;9.834;2022-12-18T04:19:53;16.40;;;9.55;;
75823;SDS011;64457;51.976;9.834;2022-12-18T04:22:20;14.85;;;9.07;;
75823;SDS011;64457;51.976;9.834;2022-12-18T04:24:48;18.65;;;10.18;;
75823;SDS011;64457;51.976;9.834;2022-12-18T04:27:15;16.10;;;9.32;;
75823;SDS011;64457;51.976;9.834;2022-12-18T04:29:42;15.00;;;9.05;;
75823;SDS011;64457;51.976;9.834;2022-12-18T04:32:11;18.10;;;10.10;;
75823;SDS011;64457;51.976;9.834;2022-12-18T04:34:39;20.25;;;9.43;;
75823;SDS011;64457;51.976;9.834;2022-12-18T04:37:06;22.58;;;10.65;;
75823;SDS011;64457;51.976;9.834;2022-12-18T04:39:34;20.33;;;9.38;;
75823;SDS011;64457;51.976;9.834;2022-12-18T04:42:02;22.33;;;10.50;;
75823;SDS011;64457;51.976;9.834;2022-12-18T04:44:29;21.50;;;11.35;;
75823;SDS011;64457;51.976;9.834;2022-12-18T04:46:57;19.92;;;11.63;;
75823;SDS011;64457;51.976;9.834;2022-12-18T04:49:26;19.08;;;10.50;;
75823;SDS011;64457;51.976;9.834;2022-12-18T04:51:53;18.80;;;11.70;;
75823;SDS011;64457;51.976;9.834;2022-12-18T04:54:21;21.17;;;12.07;;
75823;SDS011;64457;51.976;9.834;2022-12-18T04:56:48;17.10;;;10.65;;
75823;SDS011;64457;51.976;9.834;2022-12-18T04:59:16;20.00;;;11.95;;
75823;SDS011;64457;51.976;9.834;2022-12-18T05:01:43;25.05;;;12.60;;
75823;SDS011;64457;51.976;9.834;2022-12-18T05:04:11;25.85;;;13.38;;
75823;SDS011;64457;51.976;9.834;2022-12-18T05:06:40;25.27;;;12.82;;
75823;SDS011;64457;51.976;9.834;2022-12-18T05:09:07;21.38;;;12.60;;
75823;SDS011;64457;51.976;9.834;2022-12-18T05:11:37;29.13;;;12.90;;
75823;SDS011;64457;51.976;9.834;2022-12-18T05:14:04;23.02;;;14.35;;
75823;SDS011;64457;51.976;9.834;2022-12-18T05:16:32;29.42;;;14.40;;
75823;SDS011;64457;51.976;9.834;2022-12-18T05:18:59;27.08;;;13.20;;
75823;SDS011;64457;51.976;9.834;2022-12-18T05:21:27;23.77;;;13.50;;
75823;SDS011;64457;51.976;9.834;2022-12-18T05:23:56;24.98;;;12.60;;
75823;SDS011;64457;51.976;9.834;2022-12-18T05:26:24;19.33;;;11.80;;
75823;SDS011;64457;51.976;9.834;2022-12-18T05:28:51;20.38;;;12.18;;
75823;SDS011;64457;51.976;9.834;2022-12-18T05:31:21;20.20;;;11.00;;
75823;SDS011;64457;51.976;9.834;2022-12-18T05:33:48;27.98;;;13.93;;
75823;SDS011;64457;51.976;9.834;2022-12-18T05:36:16;25.35;;;13.18;;
75823;SDS011;64457;51.976;9.834;2022-12-18T05:38:43;20.92;;;11.63;;
75823;SDS011;64457;51.976;9.834;2022-12-18T05:41:12;23.60;;;12.95;;
75823;SDS011;64457;51.976;9.834;2022-12-18T05:43:40;20.83;;;12.45;;
75823;SDS011;64457;51.976;9.834;2022-12-18T05:46:08;20.13;;;11.95;;
75823;SDS011;64457;51.976;9.834;2022-12-18T05:48:39;22.45;;;11.82;;
75823;SDS011;64457;51.976;9.834;2022-12-18T05:51:08;22.25;;;11.48;;
75823;SDS011;64457;51.976;9.834;2022-12-18T05:53:37;18.15;;;10.57;;
75823;SDS011;64457;51.976;9.834;2022-12-18T05:56:05;17.65;;;10.57;;
75823;SDS011;64457;51.976;9.834;2022-12-18T05:58:36;21.40;;;11.80;;
75823;SDS011;64457;51.976;9.834;2022-12-18T06:01:08;21.48;;;11.13;;
75823;SDS011;64457;51.976;9.834;2022-12-18T06:03:38;16.45;;;9.60;;
75823;SDS011;64457;51.976;9.834;2022-12-18T06:06:12;19.00;;;11.57;;
75823;SDS011;64457;51.976;9.834;2022-12-18T06:08:41;19.25;;;11.55;;
75823;SDS011;64457;51.976;9.834;2022-12-18T06:11:08;19.50;;;11.05;;
75823;SDS011;64457;51.976;9.834;2022-12-18T06:13:37;21.42;;;12.13;;
75823;SDS011;64457;51.976;9.834;2022-12-18T06:16:05;17.55;;;10.00;;
75823;SDS011;64457;51.976;9.834;2022-12-18T06:18:33;17.73;;;11.77;;
75823;SDS011;64457;51.976;9.834;2022-12-18T06:21:03;22.90;;;11.52;;
75823;SDS011;64457;51.976;9.834;2022-12-18T06:23:31;22.02;;;11.00;;
75823;SDS011;64457;51.976;9.834;2022-12-18T06:26:02;22.63;;;12.85;;
75823;SDS011;64457;51.976;9.834;2022-12-18T06:28:31;24.60;;;11.60;;
75823;SDS011;64457;51.976;9.834;2022-12-18T06:31:00;21.63;;;12.00;;
75823;SDS011;64457;51.976;9.834;2022-12-18T06:33:30;20.38;;;10.30;;
75823;SDS011;64457;51.976;9.834;2022-12-18T06:35:59;24.30;;;11.70;;
75823;SDS011;64457;51.976;9.834;2022-12-18T06:38:27;17.35;;;10.88;;
75823;SDS011;64457;51.976;9.834;2022-12-18T06:40:54;19.77;;;11.38;;
75823;SDS011;64457;51.976;9.834;2022-12-18T06:43:22;20.23;;;12.18;;
75823;SDS011;64457;51.976;9.834;2022-12-18T06:45:49;22.55;;;12.40;;
75823;SDS011;64457;51.976;9.834;2022-12-18T06:48:20;21.25;;;12.07;;
75823;SDS011;64457;51.976;9.834;2022-12-18T06:50:47;17.10;;;10.20;;
75823;SDS011;64457;51.976;9.834;2022-12-18T06:53:15;21.85;;;13.00;;
75823;SDS011;64457;51.976;9.834;2022-12-18T06:55:42;20.35;;;10.60;;
75823;SDS011;64457;51.976;9.834;2022-12-18T06:58:10;21.17;;;11.90;;
75823;SDS011;64457;51.976;9.834;2022-12-18T07:00:38;18.85;;;11.15;;
75823;SDS011;64457;51.976;9.834;2022-12-18T07:03:05;15.10;;;9.93;;
75823;SDS011;64457;51.976;9.834;2022-12-18T07:05:34;18.17;;;11.05;;
75823;SDS011;64457;51.976;9.834;2022-12-18T07:08:06;20.08;;;9.95;;
75823;SDS011;64457;51.976;9.834;2022-12-18T07:10:39;17.52;;;10.27;;
75823;SDS011;64457;51.976;9.834;2022-12-18T07:13:08;17.85;;;10.15;;
75823;SDS011;64457;51.976;9.834;2022-12-18T07:15:36;19.52;;;11.13;;
75823;SDS011;64457;51.976;9.834;2022-12-18T07:18:04;23.40;;;11.00;;
75823;SDS011;64457;51.976;9.834;2022-12-18T07:20:32;21.25;;;11.73;;
75823;SDS011;64457;51.976;9.834;2022-12-18T07:23:02;18.52;;;11.27;;
75823;SDS011;64457;51.976;9.834;2022-12-18T07:25:33;21.35;;;12.75;;
75823;SDS011;64457;51.976;9.834;2022-12-18T07:28:01;23.40;;;12.43;;
75823;SDS011;64457;51.976;9.834;2022-12-18T07:30:28;23.25;;;11.63;;
75823;SDS011;64457;51.976;9.834;2022-12-18T07:32:56;21.83;;;12.32;;
75823;SDS011;64457;51.976;9.834;2022-12-18T07:35:23;25.23;;;11.82;;
75823;SDS011;64457;51.976;9.834;2022-12-18T07:37:51;21.60;;;11.13;;
75823;SDS011;64457;51.976;9.834;2022-12-18T07:40:20;19.10;;;10.82;;
75823;SDS011;64457;51.976;9.834;2022-12-18T07:42:47;21.02;;;10.95;;
75823;SDS011;64457;51.976;9.834;2022-12-18T07:45:15;26.20;;;11.65;;
75823;SDS011;64457;51.976;9.834;2022-12-18T07:47:42;25.70;;;10.73;;
75823;SDS011;64457;51.976;9.834;2022-12-18T07:50:10;21.00;;;11.98;;
75823;SDS011;64457;51.976;9.834;2022-12-18T07:52:38;18.85;;;10.90;;
75823;SDS011;64457;51.976;9.834;2022-12-18T07:55:06;21.30;;;11.20;;
75823;SDS011;64457;51.976;9.834;2022-12-18T07:57:36;17.75;;;11.18;;
75823;SDS011;64457;51.976;9.834;2022-12-18T08:00:04;20.50;;;10.18;;
75823;SDS011;64457;51.976;9.834;2022-12-18T08:02:33;17.98;;;9.90;;
75823;SDS011;64457;51.976;9.834;2022-12-18T08:05:00;18.83;;;10.57;;
75823;SDS011;64457;51.976;9.834;2022-12-18T08:07:28;17.60;;;10.43;;
75823;SDS011;64457;51.976;9.834;2022-12-18T08:09:55;13.57;;;8.27;;
75823;SDS011;64457;51.976;9.834;2022-12-18T08:12:23;19.00;;;9.77;;
75823;SDS011;64457;51.976;9.834;2022-12-18T08:14:52;17.58;;;9.05;;
75823;SDS011;64457;51.976;9.834;2022-12-18T08:17:19;15.90;;;9.80;;
75823;SDS011;64457;51.976;9.834;2022-12-18T08:19:47;23.05;;;11.93;;
75823;SDS011;64457;51.976;9.834;2022-12-18T08:22:14;20.27;;;11.73;;
75823;SDS011;64457;51.976;9.834;2022-12-18T08:24:41;21.05;;;11.18;;
75823;SDS011;64457;51.976;9.834;2022-12-18T08:27:09;20.05;;;12.20;;
75823;SDS011;64457;51.976;9.834;2022-12-18T08:29:36;17.65;;;10.50;;
75823;SDS011;64457;51.976;9.834;2022-12-18T08:32:06;26.60;;;12.10;;
75823;SDS011;64457;51.976;9.834;2022-12-18T08:34:34;22.70;;;11.10;;
75823;SDS011;64457;51.976;9.834;2022-12-18T08:37:01;21.25;;;11.25;;
75823;SDS011;64457;51.976;9.834;2022-12-18T08:39:29;24.80;;;13.07;;
75823;SDS011;64457;51.976;9.834;2022-12-18T08:41:57;23.98;;;12.32;;
75823;SDS011;64457;51.976;9.834;2022-12-18T08:44:42;19.10;;;11.48;;
75823;SDS011;64457;51.976;9.834;2022-12-18T08:47:11;22.70;;;12.40;;
75823;SDS011;64457;51.976;9.834;2022-12-18T08:49:38;20.63;;;11.38;;
75823;SDS011;64457;51.976;9.834;2022-12-18T08:52:06;20.52;;;11.15;;
75823;SDS011;64457;51.976;9.834;2022-12-18T08:54:34;20.38;;;11.88;;
75823;SDS011;64457;51.976;9.834;2022-12-18T08:57:01;19.02;;;12.15;;
75823;SDS011;64457;51.976;9.834;2022-12-18T08:59:29;21.08;;;10.65;;
75823;SDS011;64457;51.976;9.834;2022-12-18T09:01:57;23.83;;;11.82;;
75823;SDS011;64457;51.976;9.834;2022-12-18T09:04:26;20.05;;;12.15;;
75823;SDS011;64457;51.976;9.834;2022-12-18T09:06:56;21.20;;;10.80;;
75823;SDS011;64457;51.976;9.834;2022-12-18T09:09:24;20.80;;;11.15;;
75823;SDS011;64457;51.976;9.834;2022-12-18T09:11:51;18.92;;;11.05;;
75823;SDS011;64457;51.976;9.834;2022-12-18T09:14:19;19.08;;;11.43;;
75823;SDS011;64457;51.976;9.834;2022-12-18T09:16:48;18.13;;;10.57;;
75823;SDS011;64457;51.976;9.834;2022-12-18T09:19:16;16.25;;;10.40;;
75823;SDS011;64457;51.976;9.834;2022-12-18T09:21:45;17.88;;;11.57;;
75823;SDS011;64457;51.976;9.834;2022-12-18T09:24:13;22.98;;;12.32;;
75823;SDS011;64457;51.976;9.834;2022-12-18T09:26:42;19.90;;;11.20;;
75823;SDS011;64457;51.976;9.834;2022-12-18T09:29:10;26.70;;;12.23;;
75823;SDS011;64457;51.976;9.834;2022-12-18T09:31:37;19.33;;;11.45;;
75823;SDS011;64457;51.976;9.834;2022-12-18T09:34:05;18.02;;;11.27;;
75823;SDS011;64457;51.976;9.834;2022-12-18T09:36:33;19.10;;;11.20;;
75823;SDS011;64457;51.976;9.834;2022-12-18T09:39:02;23.10;;;10.70;;
75823;SDS011;64457;51.976;9.834;2022-12-18T09:41:33;20.95;;;10.63;;
75823;SDS011;64457;51.976;9.834;2022-12-18T09:44:12;20.23;;;11.90;;
75823;SDS011;64457;51.976;9.834;2022-12-18T09:46:47;21.08;;;11.35;;
75823;SDS011;64457;51.976;9.834;2022-12-18T09:49:21;17.23;;;9.75;;
75823;SDS011;64457;51.976;9.834;2022-12-18T09:51:54;17.15;;;10.20;;
75823;SDS011;64457;51.976;9.834;2022-12-18T09:54:29;19.27;;;11.20;;
75823;SDS011;64457;51.976;9.834;2022-12-18T09:57:02;16.60;;;9.90;;
75823;SDS011;64457;51.976;9.834;2022-12-18T09:59:33;18.58;;;10.18;;
75823;SDS011;64457;51.976;9.834;2022-12-18T10:02:14;22.98;;;10.00;;
75823;SDS011;64457;51.976;9.834;2022-12-18T10:04:44;16.30;;;9.35;;
75823;SDS011;64457;51.976;9.834;2022-12-18T10:07:25;17.58;;;8.85;;
75823;SDS011;64457;51.976;9.834;2022-12-18T10:10:04;15.20;;;8.40;;
75823;SDS011;64457;51.976;9.834;2022-12-18T10:12:43;15.20;;;9.35;;
75823;SDS011;64457;51.976;9.834;2022-12-18T10:15:19;18.55;;;8.50;;
75823;SDS011;64457;51.976;9.834;2022-12-18T10:17:57;14.95;;;8.73;;
75823;SDS011;64457;51.976;9.834;2022-12-18T10:20:38;14.18;;;8.60;;
75823;SDS011;64457;51.976;9.834;2022-12-18T10:23:13;14.50;;;8.00;;
75823;SDS011;64457;51.976;9.834;2022-12-18T10:25:50;13.05;;;7.90;;
75823;SDS011;64457;51.976;9.834;2022-12-18T10:28:22;15.05;;;8.00;;
75823;SDS011;64457;51.976;9.834;2022-12-18T10:30:51;15.40;;;8.95;;
75823;SDS011;64457;51.976;9.834;2022-12-18T10:33:20;13.48;;;7.53;;
75823;SDS011;64457;51.976;9.834;2022-12-18T10:35:51;12.68;;;8.50;;
75823;SDS011;64457;51.976;9.834;2022-12-18T10:38:23;14.70;;;8.27;;
75823;SDS011;64457;51.976;9.834;2022-12-18T10:40:56;14.07;;;7.78;;
75823;SDS011;64457;51.976;9.834;2022-12-18T10:43:26;14.80;;;7.65;;
75823;SDS011;64457;51.976;9.834;2022-12-18T10:46:04;10.93;;;6.97;;
75823;SDS011;64457;51.976;9.834;2022-12-18T10:48:47;12.10;;;6.60;;
75823;SDS011;64457;51.976;9.834;2022-12-18T10:51:20;17.33;;;6.93;;
75823;SDS011;64457;51.976;9.834;2022-12-18T10:53:52;13.00;;;6.53;;
75823;SDS011;64457;51.976;9.834;2022-12-18T10:56:26;11.07;;;5.55;;
75823;SDS011;64457;51.976;9.834;2022-12-18T10:58:56;10.13;;;5.70;;
75823;SDS011;64457;51.976;9.834;2022-12-18T11:01:27;10.40;;;6.18;;
75823;SDS011;64457;51.976;9.834;2022-12-18T11:04:01;8.68;;;4.85;;
75823;SDS011;64457;51.976;9.834;2022-12-18T11:06:35;8.30;;;5.00;;
75823;SDS011;64457;51.976;9.834;2022-12-18T11:09:24;7.55;;;4.85;;
75823;SDS011;64457;51.976;9.834;2022-12-18T11:12:14;8.98;;;4.95;;
75823;SDS011;64457;51.976;9.834;2022-12-18T11:14:46;8.98;;;5.18;;
75823;SDS011;64457;51.976;9.834;2022-12-18T11:17:18;6.57;;;4.18;;
75823;SDS011;64457;51.976;9.834;2022-12-18T11:19:51;8.35;;;4.60;;
75823;SDS011;64457;51.976;9.834;2022-12-18T11:22:22;7.55;;;3.92;;
75823;SDS011;64457;51.976;9.834;2022-12-18T11:24:53;6.50;;;3.40;;
75823;SDS011;64457;51.976;9.834;2022-12-18T11:27:26;7.97;;;4.03;;
75823;SDS011;64457;51.976;9.834;2022-12-18T11:30:07;8.60;;;4.95;;
75823;SDS011;64457;51.976;9.834;2022-12-18T11:32:37;7.93;;;4.45;;
75823;SDS011;64457;51.976;9.834;2022-12-18T11:35:11;8.88;;;4.80;;
75823;SDS011;64457;51.976;9.834;2022-12-18T11:37:46;10.48;;;5.28;;
75823;SDS011;64457;51.976;9.834;2022-12-18T11:40:19;9.02;;;5.50;;
75823;SDS011;64457;51.976;9.834;2022-12-18T11:42:57;10.80;;;6.15;;
75823;SDS011;64457;51.976;9.834;2022-12-18T11:45:31;9.50;;;5.80;;
75823;SDS011;64457;51.976;9.834;2022-12-18T11:48:04;14.82;;;6.90;;
75823;SDS011;64457;51.976;9.834;2022-12-18T11:50:43;15.18;;;7.97;;
75823;SDS011;64457;51.976;9.834;2022-12-18T11:53:16;12.40;;;6.80;;
75823;SDS011;64457;51.976;9.834;2022-12-18T11:55:56;16.45;;;7.80;;
75823;SDS011;64457;51.976;9.834;2022-12-18T12:01:30;8.55;;;5.80;;
75823;SDS011;64457;51.976;9.834;2022-12-18T12:04:14;17.00;;;9.00;;
75823;SDS011;64457;51.976;9.834;2022-12-18T12:07:12;10.00;;;6.30;;
75823;SDS011;64457;51.976;9.834;2022-12-18T12:09:52;8.63;;;4.70;;
75823;SDS011;64457;51.976;9.834;2022-12-18T12:12:32;7.03;;;4.63;;
75823;SDS011;64457;51.976;9.834;2022-12-18T12:15:22;7.45;;;4.60;;
75823;SDS011;64457;51.976;9.834;2022-12-18T12:18:01;8.40;;;5.30;;
75823;SDS011;64457;51.976;9.834;2022-12-18T12:20:42;9.55;;;5.22;;
75823;SDS011;64457;51.976;9.834;2022-12-18T12:23:20;6.93;;;4.28;;
75823;SDS011;64457;51.976;9.834;2022-12-18T12:25:58;6.07;;;4.43;;
75823;SDS011;64457;51.976;9.834;2022-12-18T12:28:42;7.80;;;4.50;;
75823;SDS011;64457;51.976;9.834;2022-12-18T12:31:36;7.38;;;4.65;;
75823;SDS011;64457;51.976;9.834;2022-12-18T12:34:18;7.53;;;4.65;;
75823;SDS011;64457;51.976;9.834;2022-12-18T12:36:53;8.90;;;4.30;;
75823;SDS011;64457;51.976;9.834;2022-12-18T12:39:38;7.45;;;4.45;;
75823;SDS011;64457;51.976;9.834;2022-12-18T12:42:12;7.25;;;4.50;;
75823;SDS011;64457;51.976;9.834;2022-12-18T12:45:16;8.15;;;4.43;;
75823;SDS011;64457;51.976;9.834;2022-12-18T12:47:51;7.60;;;4.03;;
75823;SDS011;64457;51.976;9.834;2022-12-18T12:50:20;6.70;;;4.05;;
75823;SDS011;64457;51.976;9.834;2022-12-18T12:52:50;6.22;;;3.67;;
75823;SDS011;64457;51.976;9.834;2022-12-18T12:55:21;6.95;;;4.25;;
75823;SDS011;64457;51.976;9.834;2022-12-18T12:57:55;8.35;;;4.28;;
75823;SDS011;64457;51.976;9.834;2022-12-18T13:00:35;9.00;;;4.83;;
75823;SDS011;64457;51.976;9.834;2022-12-18T13:03:14;6.43;;;3.85;;
75823;SDS011;64457;51.976;9.834;2022-12-18T13:05:54;7.30;;;3.80;;
75823;SDS011;64457;51.976;9.834;2022-12-18T13:08:27;6.87;;;4.67;;
75823;SDS011;64457;51.976;9.834;2022-12-18T13:10:57;7.30;;;4.07;;
75823;SDS011;64457;51.976;9.834;2022-12-18T13:13:47;5.97;;;3.95;;
75823;SDS011;64457;51.976;9.834;2022-12-18T13:16:18;5.45;;;3.78;;
75823;SDS011;64457;51.976;9.834;2022-12-18T13:18:50;4.90;;;3.13;;
75823;SDS011;64457;51.976;9.834;2022-12-18T13:21:21;6.90;;;3.92;;
75823;SDS011;64457;51.976;9.834;2022-12-18T13:23:53;3.83;;;2.60;;
75823;SDS011;64457;51.976;9.834;2022-12-18T13:26:32;5.60;;;3.38;;
75823;SDS011;64457;51.976;9.834;2022-12-18T13:29:01;5.03;;;3.60;;
75823;SDS011;64457;51.976;9.834;2022-12-18T13:34:47;6.72;;;3.40;;
75823;SDS011;64457;51.976;9.834;2022-12-18T13:43:29;10.65;;;3.90;;
75823;SDS011;64457;51.976;9.834;2022-12-18T13:46:02;16.03;;;7.17;;
75823;SDS011;64457;51.976;9.834;2022-12-18T13:48:50;6.25;;;3.83;;
75823;SDS011;64457;51.976;9.834;2022-12-18T13:51:23;5.60;;;3.90;;
75823;SDS011;64457;51.976;9.834;2022-12-18T13:53:53;8.63;;;5.07;;
75823;SDS011;64457;51.976;9.834;2022-12-18T13:56:24;7.00;;;4.00;;
75823;SDS011;64457;51.976;9.834;2022-12-18T13:59:11;6.80;;;3.90;;
75823;SDS011;64457;51.976;9.834;2022-12-18T14:01:46;6.70;;;4.23;;
75823;SDS011;64457;51.976;9.834;2022-12-18T14:04:19;7.03;;;4.63;;
75823;SDS011;64457;51.976;9.834;2022-12-18T14:06:52;8.20;;;4.75;;
75823;SDS011;64457;51.976;9.834;2022-12-18T14:09:25;9.60;;;5.40;;
75823;SDS011;64457;51.976;9.834;2022-12-18T14:11:55;10.23;;;5.63;;
75823;SDS011;64457;51.976;9.834;2022-12-18T14:14:44;8.00;;;4.45;;
75823;SDS011;64457;51.976;9.834;2022-12-18T14:17:14;6.75;;;4.30;;
75823;SDS011;64457;51.976;9.834;2022-12-18T14:19:43;7.10;;;4.50;;
75823;SDS011;64457;51.976;9.834;2022-12-18T14:22:16;11.93;;;4.30;;
75823;SDS011;64457;51.976;9.834;2022-12-18T14:24:46;6.38;;;3.55;;
75823;SDS011;64457;51.976;9.834;2022-12-18T14:27:22;7.18;;;4.20;;
75823;SDS011;64457;51.976;9.834;2022-12-18T14:29:51;5.28;;;3.50;;
75823;SDS011;64457;51.976;9.834;2022-12-18T14:32:19;5.10;;;3.10;;
75823;SDS011;64457;51.976;9.834;2022-12-18T14:34:48;5.25;;;3.63;;
75823;SDS011;64457;51.976;9.834;2022-12-18T14:37:20;5.10;;;3.40;;
75823;SDS011;64457;51.976;9.834;2022-12-18T14:39:54;4.63;;;3.25;;
75823;SDS011;64457;51.976;9.834;2022-12-18T14:42:24;5.07;;;3.15;;
75823;SDS011;64457;51.976;9.834;2022-12-18T14:47:59;4.70;;;2.95;;
75823;SDS011;64457;51.976;9.834;2022-12-18T14:50:27;4.93;;;3.53;;
75823;SDS011;64457;51.976;9.834;2022-12-18T14:52:56;6.40;;;3.95;;
75823;SDS011;64457;51.976;9.834;2022-12-18T14:55:24;6.90;;;3.30;;
75823;SDS011;64457;51.976;9.834;2022-12-18T14:57:53;6.88;;;3.95;;
75823;SDS011;64457;51.976;9.834;2022-12-18T15:00:23;6.85;;;3.78;;
75823;SDS011;64457;51.976;9.834;2022-12-18T15:02:52;7.88;;;4.47;;
75823;SDS011;64457;51.976;9.834;2022-12-18T15:05:24;7.63;;;4.10;;
75823;SDS011;64457;51.976;9.834;2022-12-18T15:07:54;6.95;;;4.40;;
75823;SDS011;64457;51.976;9.834;2022-12-18T15:10:26;4.78;;;3.55;;